This is the latest recevied weather packets stored in our database for station/object EA3CH. If no packets are shown the sender has not sent any weather packets the latest 10 day(s).
| Time | Temp. | Humidity | Pressure | Rain* | Wind** | Luminosity | Snow |
|---|---|---|---|---|---|---|---|
| 1788004804 | 27.78° C | 44% | 1020.1 hPa | 0 mm | - | 0 W/m² | - |
| 1788003904 | 28.33° C | 43% | 1020.2 hPa | 0 mm | - | 0 W/m² | - |
| 1788003004 | 27.78° C | 44% | 1020.4 hPa | 0 mm | - | 0 W/m² | - |
| 1788002103 | 27.22° C | 44% | 1020.5 hPa | 0 mm | - | 0 W/m² | - |
| 1788001204 | 27.22° C | 43% | 1020.5 hPa | 0 mm | - | 0 W/m² | - |
| 1788000304 | 26.67° C | 42% | 1020.6 hPa | 0 mm | - | 0 W/m² | - |
| 1787999403 | 26.67° C | 46% | 1020.8 hPa | 0 mm | - | 0 W/m² | - |
| 1787998504 | 26.11° C | 47% | 1020.8 hPa | 0 mm | - | 0 W/m² | - |
| 1787997606 | 25.56° C | 37% | 1020.8 hPa | 0 mm | - | 0 W/m² | - |
| 1787997604 | 26.11° C | 46% | 1020.9 hPa | 0 mm | - | 0 W/m² | - |
| 1787996704 | 25.56° C | 48% | 1021 hPa | 0 mm | - | 0 W/m² | - |
| 1787995804 | 25° C | 50% | 1021 hPa | 0 mm | - | 0 W/m² | - |
| 1787994903 | 25° C | 50% | 1020.8 hPa | 0 mm | - | 0 W/m² | - |
| 1787994004 | 24.44° C | 51% | 1020.9 hPa | 0 mm | - | 0 W/m² | - |
| 1787993104 | 24.44° C | 54% | 1020.9 hPa | 0 mm | - | 0 W/m² | - |
| 1787992206 | 23.33° C | 46% | 1020.6 hPa | 0 mm | - | 0 W/m² | - |
| 1787992203 | 23.89° C | 54% | 1020.8 hPa | 0 mm | - | 0 W/m² | - |
| 1787991303 | 22.78° C | 57% | 1020.7 hPa | 0 mm | - | 0 W/m² | - |
| 1787990406 | 22.22° C | 49% | 1020.4 hPa | 0 mm | - | 0 W/m² | - |
| 1787990404 | 22.22° C | 60% | 1020.6 hPa | 0 mm | - | 0 W/m² | - |
| 1787989504 | 20.56° C | 63% | 1020.6 hPa | 0 mm | - | 0 W/m² | - |
| 1787988604 | 19.44° C | 69% | 1020.5 hPa | 0 mm | - | 0 W/m² | - |
| 1787987704 | 17.22° C | 73% | 1020.4 hPa | 0 mm | - | 0 W/m² | - |
| 1787986806 | 22.78° C | 46% | 1020.1 hPa | 0 mm | - | 0 W/m² | - |
| 1787986804 | 15.56° C | 77% | 1020.3 hPa | 0 mm | - | 0 W/m² | - |
* Rain latest hour (hover to see other rain measurements)
** Current wind speed in m/s (hover to see current wind gust speed)